Terminal Aerodrome Forecast
Issued by NWS Detroit/Pontiac, MI

Home | Current Version | Previous Version | Text Only | Print | Product List | Glossary On
Versions: 1 2 3 4 5 6 7 8 9 10 11 12 13 14 15 16 17 18 19 20
000
FTUS43 KDTX 230125 AAA
TAFFNT
TAF AMD
KFNT 230125Z 2301/2324 22005KT P6SM OVC100
      TEMPO 2302/2305 P6SM -RA OVC070
     FM231400 22005KT P6SM OVC060
     FM232000 22007KT P6SM BKN045 PROB30 2320/2324 5SM -SHRA OVC035=

USA.gov is the U.S. government's official web portal to all federal, state and local government web resources and services.